createdAt,value
2022-11-21T00:01:23.352Z,100972.55
2022-11-21T00:03:51.233Z,100984.61
2022-11-21T00:06:19.224Z,100993.12
2022-11-21T00:08:47.476Z,100981.57
2022-11-21T00:11:15.287Z,100980.72
2022-11-21T00:13:43.204Z,100957.77
2022-11-21T00:16:13.440Z,100957.34
2022-11-21T00:18:41.416Z,100958.00
2022-11-21T00:21:11.620Z,100960.48
2022-11-21T00:23:39.480Z,100965.23
2022-11-21T00:26:08.076Z,100950.54
2022-11-21T00:28:35.966Z,100962.09
2022-11-21T00:31:04.111Z,100952.44
2022-11-21T00:33:32.518Z,100954.95
2022-11-21T00:36:00.265Z,100956.63
2022-11-21T00:38:28.650Z,100952.44
2022-11-21T00:40:56.450Z,100940.24
2022-11-21T00:43:24.331Z,100943.94
2022-11-21T00:45:52.152Z,100954.95
2022-11-21T00:48:19.995Z,100948.45
2022-11-21T00:50:50.409Z,100954.63
2022-11-21T00:53:18.301Z,100951.55
2022-11-21T00:55:46.154Z,100952.30
2022-11-21T00:58:14.037Z,100944.46
2022-11-21T01:00:41.881Z,100938.48
2022-11-21T01:03:09.775Z,100937.34
2022-11-21T01:05:37.540Z,100934.49
2022-11-21T01:08:05.511Z,100940.15
2022-11-21T01:10:33.414Z,100936.48
2022-11-21T01:13:01.245Z,100939.52
2022-11-21T01:15:28.937Z,100935.54
2022-11-21T01:17:56.681Z,100932.07
2022-11-21T01:20:24.562Z,100938.61
2022-11-21T01:22:52.321Z,100928.31
2022-11-21T01:25:20.088Z,100931.68
2022-11-21T01:27:47.886Z,100924.84
2022-11-21T01:30:16.103Z,100934.81
2022-11-21T01:32:43.876Z,100926.09
2022-11-21T01:35:11.805Z,100927.46
2022-11-21T01:37:39.516Z,100912.98
2022-11-21T01:40:07.595Z,100919.48
2022-11-21T01:42:59.774Z,100902.48
2022-11-21T01:45:53.656Z,100905.52
2022-11-21T01:48:22.272Z,100893.03
2022-11-21T01:50:50.020Z,100887.38
2022-11-21T01:53:17.879Z,100880.87
2022-11-21T01:55:45.822Z,100853.56
2022-11-21T01:58:13.656Z,100850.43
2022-11-21T02:00:41.582Z,100836.34
2022-11-21T02:03:15.479Z,100828.39
2022-11-21T02:05:43.189Z,100819.53
2022-11-21T02:08:15.753Z,100813.77
2022-11-21T02:10:48.025Z,100807.27
2022-11-21T02:13:16.083Z,100815.15
2022-11-21T02:15:43.916Z,100822.99
2022-11-21T02:18:11.702Z,100811.84
2022-11-21T02:20:39.494Z,100806.09
2022-11-21T02:23:21.840Z,100827.60
2022-11-21T02:25:49.641Z,100827.93
2022-11-21T02:28:17.780Z,100817.11
2022-11-21T02:30:45.464Z,100800.83
2022-11-21T02:33:13.504Z,100819.70
2022-11-21T02:35:41.314Z,100801.64
2022-11-21T02:38:23.606Z,100826.00
2022-11-21T02:41:13.229Z,100797.98
2022-11-21T02:43:41.918Z,100817.11
2022-11-21T02:46:09.718Z,100791.25
2022-11-21T02:48:38.671Z,100793.27
2022-11-21T02:51:06.642Z,100794.98
2022-11-21T02:53:34.590Z,100775.95
2022-11-21T02:56:02.482Z,100768.26
2022-11-21T02:58:30.648Z,100762.28
2022-11-21T03:00:58.444Z,100756.30
2022-11-21T03:03:26.307Z,100762.80
2022-11-21T03:05:53.998Z,100757.24
2022-11-21T03:08:21.797Z,100754.10
2022-11-21T03:10:49.567Z,100741.78
2022-11-21T03:13:17.565Z,100737.27
2022-11-21T03:15:45.283Z,100751.26
2022-11-21T03:18:13.092Z,100737.92
2022-11-21T03:20:40.934Z,100747.80
2022-11-21T03:23:08.783Z,100743.77
2022-11-21T03:25:36.499Z,100728.77
2022-11-21T03:28:04.290Z,100727.59
2022-11-21T03:30:32.013Z,100727.81
2022-11-21T03:32:59.742Z,100726.31
2022-11-21T03:35:27.716Z,100724.84
2022-11-21T03:37:55.629Z,100731.67
2022-11-21T03:40:23.502Z,100720.62
2022-11-21T03:42:51.299Z,100724.84
2022-11-21T03:45:19.264Z,100724.35
2022-11-21T03:47:47.096Z,100729.35
2022-11-21T03:50:18.495Z,100716.02
2022-11-21T03:52:46.227Z,100716.21
2022-11-21T03:55:13.990Z,100712.55
2022-11-21T03:57:41.842Z,100727.20
2022-11-21T04:00:10.323Z,100722.52
2022-11-21T04:02:38.221Z,100719.02
2022-11-21T04:05:06.292Z,100712.84
2022-11-21T04:07:34.105Z,100712.48
2022-11-21T04:10:01.866Z,100710.45
2022-11-21T04:12:29.614Z,100707.45
2022-11-21T04:14:57.358Z,100697.93
2022-11-21T04:17:25.185Z,100711.24
2022-11-21T04:19:53.034Z,100715.59
2022-11-21T04:22:20.802Z,100720.20
2022-11-21T04:24:48.581Z,100705.52
2022-11-21T04:27:16.435Z,100705.81
2022-11-21T04:29:44.260Z,100706.95
2022-11-21T04:32:12.020Z,100712.65
2022-11-21T04:34:40.865Z,100702.77
2022-11-21T04:37:11.613Z,100699.60
2022-11-21T04:39:39.626Z,100683.45
2022-11-21T04:42:07.492Z,100681.45
2022-11-21T04:44:35.188Z,100693.62
2022-11-21T04:47:05.517Z,100701.01
2022-11-21T04:49:33.764Z,100705.26
2022-11-21T04:52:01.541Z,100719.15
2022-11-21T04:54:29.615Z,100717.12
2022-11-21T04:56:57.675Z,100706.37
2022-11-21T04:59:25.428Z,100709.80
2022-11-21T05:01:53.237Z,100709.80
2022-11-21T05:04:21.119Z,100715.49
2022-11-21T05:06:48.881Z,100714.02
2022-11-21T05:09:16.727Z,100714.94
2022-11-21T05:12:03.222Z,100710.09
2022-11-21T05:14:31.107Z,100724.80
2022-11-21T05:16:59.012Z,100718.10
2022-11-21T05:19:26.804Z,100719.15
2022-11-21T05:21:55.080Z,100722.72
2022-11-21T05:24:22.859Z,100722.62
2022-11-21T05:26:50.722Z,100727.95
2022-11-21T05:29:18.541Z,100717.06
2022-11-21T05:31:46.304Z,100737.63
2022-11-21T05:34:14.154Z,100721.08
2022-11-21T05:36:41.916Z,100731.28
2022-11-21T05:39:09.690Z,100737.27
2022-11-21T05:41:37.379Z,100722.91
2022-11-21T05:44:05.154Z,100729.42
2022-11-21T05:46:33.012Z,100729.22
2022-11-21T05:49:00.753Z,100734.91
2022-11-21T05:51:28.582Z,100727.03
2022-11-21T05:53:56.450Z,100729.02
2022-11-21T05:56:24.281Z,100745.47
2022-11-21T05:58:51.974Z,100742.98
2022-11-21T06:01:42.915Z,100738.67
2022-11-21T06:04:10.758Z,100748.87
2022-11-21T06:06:38.682Z,100744.36
2022-11-21T06:09:06.404Z,100750.64
2022-11-21T06:11:34.238Z,100758.95
2022-11-21T06:14:02.033Z,100752.44
2022-11-21T06:16:29.772Z,100751.78
2022-11-21T06:18:58.854Z,100747.92
2022-11-21T06:21:28.343Z,100752.05
2022-11-21T06:23:57.946Z,100753.19
2022-11-21T06:26:26.912Z,100750.51
2022-11-21T06:28:55.367Z,100754.79
2022-11-21T06:31:25.014Z,100746.84
2022-11-21T06:33:56.643Z,100749.33
2022-11-21T06:36:24.429Z,100754.07
2022-11-21T06:38:54.056Z,100740.73
2022-11-21T06:41:23.505Z,100744.69
2022-11-21T06:43:51.309Z,100757.73
2022-11-21T06:46:19.300Z,100749.72
2022-11-21T06:48:47.077Z,100755.61
2022-11-21T06:51:19.444Z,100752.63
2022-11-21T06:53:47.927Z,100759.66
2022-11-21T06:56:18.757Z,100761.36
2022-11-21T06:58:46.581Z,100764.50
2022-11-21T07:01:14.771Z,100772.71
2022-11-21T07:03:42.597Z,100758.81
2022-11-21T07:06:10.347Z,100759.47
2022-11-21T07:08:38.176Z,100756.95
2022-11-21T07:11:24.557Z,100771.01
2022-11-21T07:13:52.954Z,100770.48
2022-11-21T07:16:20.708Z,100773.82
2022-11-21T07:18:48.503Z,100774.41
2022-11-21T07:21:16.317Z,100775.23
2022-11-21T07:23:44.027Z,100769.57
2022-11-21T07:26:12.107Z,100765.32
2022-11-21T07:28:40.106Z,100758.95
2022-11-21T07:31:13.251Z,100765.13
2022-11-21T07:33:42.040Z,100767.34
2022-11-21T07:36:09.863Z,100761.66
2022-11-21T07:38:37.619Z,100768.06
2022-11-21T07:41:05.448Z,100772.12
2022-11-21T07:43:33.345Z,100771.73
2022-11-21T07:46:01.268Z,100765.84
2022-11-21T07:48:33.815Z,100762.31
2022-11-21T07:51:04.837Z,100760.84
2022-11-21T07:53:33.017Z,100763.26
2022-11-21T07:56:01.220Z,100752.93
2022-11-21T07:58:29.107Z,100755.51
2022-11-21T08:00:57.043Z,100747.83
2022-11-21T08:03:26.373Z,100756.10
2022-11-21T08:05:54.306Z,100753.38
2022-11-21T08:08:22.094Z,100741.55
2022-11-21T08:10:49.978Z,100739.00
2022-11-21T08:13:17.824Z,100746.03
2022-11-21T08:15:45.663Z,100739.85
2022-11-21T08:18:20.316Z,100741.55
2022-11-21T08:20:48.320Z,100737.73
2022-11-21T08:23:16.106Z,100735.40
2022-11-21T08:25:44.125Z,100733.27
2022-11-21T08:28:12.431Z,100711.60
2022-11-21T08:30:40.738Z,100713.27
2022-11-21T08:33:08.574Z,100723.96
2022-11-21T08:35:37.477Z,100724.35
2022-11-21T08:38:05.498Z,100726.54
2022-11-21T08:40:33.663Z,100725.56
2022-11-21T08:43:03.326Z,100720.27
2022-11-21T08:45:31.255Z,100716.44
2022-11-21T08:47:59.063Z,100712.41
2022-11-21T08:50:27.295Z,100712.41
2022-11-21T08:53:00.125Z,100714.31
2022-11-21T08:55:27.932Z,100708.91
2022-11-21T08:57:55.653Z,100705.78
2022-11-21T09:00:23.685Z,100700.81
2022-11-21T09:02:51.547Z,100691.16
2022-11-21T09:05:19.340Z,100678.64
2022-11-21T09:07:47.497Z,100684.20
2022-11-21T09:10:15.786Z,100681.88
2022-11-21T09:12:43.814Z,100672.20
2022-11-21T09:15:30.748Z,100667.36
2022-11-21T09:18:04.505Z,100663.21
2022-11-21T09:20:42.640Z,100662.03
2022-11-21T09:23:12.444Z,100660.37
2022-11-21T09:25:40.443Z,100655.82
2022-11-21T09:28:09.092Z,100656.93
2022-11-21T09:30:37.162Z,100664.62
2022-11-21T09:33:09.675Z,100664.62
2022-11-21T09:35:37.504Z,100667.63
2022-11-21T09:38:05.324Z,100664.42
2022-11-21T09:40:33.721Z,100663.27
2022-11-21T09:43:23.042Z,100665.23
2022-11-21T09:45:51.773Z,100663.27
2022-11-21T09:48:29.275Z,100652.32
2022-11-21T09:50:59.933Z,100659.97
2022-11-21T09:53:30.034Z,100650.20
2022-11-21T09:56:04.460Z,100641.70
2022-11-21T09:58:50.264Z,100642.48
2022-11-21T10:01:18.364Z,100636.76
2022-11-21T10:03:50.544Z,100634.20
2022-11-21T10:06:28.304Z,100635.81
2022-11-21T10:09:16.416Z,100627.30
2022-11-21T10:12:15.372Z,100610.24
2022-11-21T10:15:01.908Z,100611.62
2022-11-21T10:18:05.122Z,100601.61
2022-11-21T10:20:51.678Z,100582.97
2022-11-21T10:23:48.438Z,100561.95
2022-11-21T10:26:21.897Z,100544.36
2022-11-21T10:28:54.830Z,100536.91
2022-11-21T10:31:22.644Z,100551.42
2022-11-21T10:33:51.661Z,100546.91
2022-11-21T10:36:19.312Z,100546.19
2022-11-21T10:38:47.118Z,100542.13
2022-11-21T10:41:32.824Z,100532.16
2022-11-21T10:44:47.761Z,100526.84
2022-11-21T10:47:28.498Z,100528.86
2022-11-21T10:50:14.211Z,100518.56
2022-11-21T10:52:50.416Z,100505.45
2022-11-21T10:55:18.882Z,100502.31
2022-11-21T10:57:51.028Z,100495.18
2022-11-21T11:00:26.210Z,100484.20
2022-11-21T11:02:57.374Z,100470.59
2022-11-21T11:05:26.419Z,100462.55
2022-11-21T11:08:20.754Z,100461.34
2022-11-21T11:11:08.202Z,100457.48
2022-11-21T11:13:51.275Z,100441.53
2022-11-21T11:16:20.510Z,100429.53
2022-11-21T11:19:09.902Z,100419.88
2022-11-21T11:21:40.631Z,100421.65
2022-11-21T11:24:08.418Z,100422.07
2022-11-21T11:26:36.445Z,100415.99
2022-11-21T11:29:15.502Z,100406.09
2022-11-21T11:32:02.706Z,100404.19
2022-11-21T11:34:41.715Z,100389.73
2022-11-21T11:37:21.124Z,100384.31
2022-11-21T11:40:21.477Z,100377.51
2022-11-21T11:43:38.847Z,100368.62
2022-11-21T11:46:28.321Z,100361.65
2022-11-21T11:49:19.225Z,100360.77
2022-11-21T11:51:48.502Z,100349.45
2022-11-21T11:54:28.403Z,100349.36
2022-11-21T11:56:56.347Z,100346.12
2022-11-21T11:59:27.790Z,100343.34
2022-11-21T12:02:11.969Z,100323.49
2022-11-21T12:04:47.272Z,100320.78
2022-11-21T12:10:32.512Z,100311.13
2022-11-21T12:13:20.512Z,100305.48
2022-11-21T12:15:52.303Z,100298.81
2022-11-21T12:18:20.561Z,100289.52
2022-11-21T12:21:09.567Z,100283.45
2022-11-21T12:23:47.882Z,100283.15
2022-11-21T12:26:21.782Z,100279.16
2022-11-21T12:29:05.764Z,100271.67
2022-11-21T12:32:01.972Z,100261.83
2022-11-21T12:34:39.832Z,100249.70
2022-11-21T12:37:20.615Z,100247.45
2022-11-21T12:40:01.708Z,100231.55
2022-11-21T12:42:47.637Z,100229.88
2022-11-21T12:45:31.624Z,100221.45
2022-11-21T12:48:39.733Z,100206.80
2022-11-21T12:51:56.815Z,100205.40
2022-11-21T12:54:49.609Z,100194.80
2022-11-21T12:57:18.525Z,100192.80
2022-11-21T12:59:55.443Z,100183.95
2022-11-21T13:02:23.115Z,100173.65
2022-11-21T13:04:51.506Z,100167.17
2022-11-21T13:07:19.528Z,100158.80
2022-11-21T13:09:48.710Z,100149.68
2022-11-21T13:12:34.552Z,100144.16
2022-11-21T13:15:23.244Z,100136.24
2022-11-21T13:18:00.169Z,100126.23
2022-11-21T13:20:29.331Z,100124.77
2022-11-21T13:23:10.054Z,100124.24
2022-11-21T13:25:41.907Z,100117.57
2022-11-21T13:28:19.037Z,100114.47
2022-11-21T13:30:50.650Z,100104.82
2022-11-21T13:33:36.551Z,100104.73
2022-11-21T13:36:09.019Z,100104.27
2022-11-21T13:38:52.122Z,100101.16
2022-11-21T13:41:53.748Z,100098.58
2022-11-21T13:44:33.608Z,100082.00
2022-11-21T13:47:27.704Z,100089.09
2022-11-21T13:50:09.963Z,100071.02
2022-11-21T13:52:58.946Z,100068.27
2022-11-21T13:55:49.839Z,100065.69
2022-11-21T13:58:33.704Z,100054.63
2022-11-21T14:01:20.109Z,100048.65
2022-11-21T14:04:09.062Z,100041.13
2022-11-21T14:06:40.633Z,100039.76
2022-11-21T14:09:14.605Z,100034.30
2022-11-21T14:12:04.997Z,100035.41
2022-11-21T14:14:40.430Z,100019.87
2022-11-21T14:17:15.551Z,100011.21
2022-11-21T14:19:43.326Z,99998.43
2022-11-21T14:22:45.599Z,99993.46
2022-11-21T14:25:18.861Z,99994.08
2022-11-21T14:27:50.178Z,99990.84
2022-11-21T14:30:34.248Z,99981.39
2022-11-21T14:33:24.073Z,99974.62
2022-11-21T14:36:17.857Z,99961.97
2022-11-21T14:39:07.450Z,99965.54
2022-11-21T14:41:38.296Z,99968.38
2022-11-21T14:44:07.150Z,99962.95
2022-11-21T14:46:39.328Z,99953.47
2022-11-21T14:49:16.927Z,99947.78
2022-11-21T14:51:45.589Z,99941.11
2022-11-21T14:54:15.568Z,99937.84
2022-11-21T14:56:43.390Z,99934.60
2022-11-21T14:59:18.672Z,99921.00
2022-11-21T15:01:56.482Z,99923.36
2022-11-21T15:04:35.125Z,99913.65
2022-11-21T15:07:03.202Z,99908.19
2022-11-21T15:12:28.913Z,99894.95
2022-11-21T15:15:01.015Z,99881.80
2022-11-21T15:17:28.807Z,99880.04
2022-11-21T15:20:11.437Z,99868.27
2022-11-21T15:22:40.612Z,99859.27
2022-11-21T15:25:20.255Z,99849.50
2022-11-21T15:27:52.230Z,99848.26
2022-11-21T15:30:20.056Z,99853.45
2022-11-21T15:33:08.706Z,99847.30
2022-11-21T15:35:39.138Z,99831.74
2022-11-21T15:38:51.007Z,99823.50
2022-11-21T15:41:18.681Z,99816.02
2022-11-21T15:43:52.929Z,99817.98
2022-11-21T15:46:27.775Z,99813.01
2022-11-21T15:49:25.111Z,99814.94
2022-11-21T15:52:06.491Z,99809.84
2022-11-21T15:54:35.161Z,99809.74
2022-11-21T15:57:02.971Z,99803.13
2022-11-21T15:59:31.988Z,99796.95
2022-11-21T16:02:00.050Z,99785.48
2022-11-21T16:04:28.464Z,99776.81
2022-11-21T16:06:56.430Z,99781.62
2022-11-21T16:09:24.224Z,99775.80
2022-11-21T16:11:51.977Z,99770.83
2022-11-21T16:14:19.854Z,99770.73
2022-11-21T16:16:47.829Z,99766.94
2022-11-21T16:19:15.918Z,99757.59
2022-11-21T16:21:43.815Z,99744.45
2022-11-21T16:24:11.689Z,99745.13
2022-11-21T16:26:39.559Z,99735.29
2022-11-21T16:29:07.814Z,99736.40
2022-11-21T16:31:35.744Z,99731.04
2022-11-21T16:34:03.775Z,99725.97
2022-11-21T16:36:32.412Z,99719.37
2022-11-21T16:39:08.843Z,99709.20
2022-11-21T16:41:38.092Z,99701.84
2022-11-21T16:44:06.063Z,99691.28
2022-11-21T16:46:33.846Z,99683.04
2022-11-21T16:49:04.984Z,99674.41
2022-11-21T16:51:32.807Z,99668.72
2022-11-21T16:54:04.420Z,99660.52
2022-11-21T16:56:36.265Z,99652.38
2022-11-21T16:59:04.134Z,99655.55
2022-11-21T17:01:32.107Z,99655.22
2022-11-21T17:04:00.219Z,99664.08
2022-11-21T17:06:30.304Z,99657.21
2022-11-21T17:08:59.756Z,99644.30
2022-11-21T17:11:30.291Z,99638.51
2022-11-21T17:14:05.706Z,99637.82
2022-11-21T17:16:33.765Z,99643.61
2022-11-21T17:19:02.009Z,99631.45
2022-11-21T17:21:29.997Z,99628.37
2022-11-21T17:23:57.879Z,99623.34
2022-11-21T17:26:27.752Z,99625.27
2022-11-21T17:28:59.752Z,99614.48
2022-11-21T17:31:27.752Z,99610.39
2022-11-21T17:33:57.600Z,99612.29
2022-11-21T17:36:27.365Z,99599.17
2022-11-21T17:38:55.698Z,99597.37
2022-11-21T17:41:24.330Z,99586.75
2022-11-21T17:43:55.686Z,99576.09
2022-11-21T17:46:24.861Z,99575.66
2022-11-21T17:48:55.570Z,99568.21
2022-11-21T17:51:35.412Z,99564.88
2022-11-21T17:54:03.407Z,99568.44
2022-11-21T17:56:32.755Z,99575.80
2022-11-21T17:59:00.581Z,99586.72
2022-11-21T18:01:28.728Z,99594.04
2022-11-21T18:04:06.524Z,99578.55
2022-11-21T18:06:37.985Z,99572.85
2022-11-21T18:09:09.083Z,99574.42
2022-11-21T18:11:39.960Z,99573.57
2022-11-21T18:14:08.851Z,99575.60
2022-11-21T18:16:36.752Z,99573.12
2022-11-21T18:19:04.500Z,99570.17
2022-11-21T18:21:34.089Z,99572.89
2022-11-21T18:24:02.005Z,99573.28
2022-11-21T18:26:34.355Z,99574.81
2022-11-21T18:31:51.132Z,99555.66
2022-11-21T18:34:18.970Z,99553.17
2022-11-21T18:36:48.722Z,99549.48
2022-11-21T18:39:16.561Z,99540.52
2022-11-21T18:41:44.368Z,99549.77
2022-11-21T18:44:17.027Z,99552.95
2022-11-21T18:46:48.008Z,99561.97
2022-11-21T18:49:15.861Z,99569.65
2022-11-21T18:51:43.736Z,99582.08
2022-11-21T18:54:12.081Z,99592.15
2022-11-21T18:56:41.011Z,99594.44
2022-11-21T18:59:08.987Z,99599.08
2022-11-21T19:01:37.643Z,99614.34
2022-11-21T19:04:05.659Z,99614.22
2022-11-21T19:06:33.524Z,99606.17
2022-11-21T19:09:01.372Z,99602.15
2022-11-21T19:11:30.470Z,99600.98
2022-11-21T19:13:58.867Z,99610.55
2022-11-21T19:16:27.731Z,99600.02
2022-11-21T19:19:26.518Z,99597.18
2022-11-21T19:21:43.589Z,99601.46
2022-11-21T19:24:14.348Z,99598.06
2022-11-21T19:26:42.474Z,99597.67
2022-11-21T19:29:10.968Z,99601.82
2022-11-21T19:31:44.628Z,99593.65
2022-11-21T19:34:15.292Z,99594.50
2022-11-21T19:36:44.527Z,99595.91
2022-11-21T19:39:12.563Z,99596.72
2022-11-21T19:41:40.452Z,99598.39
2022-11-21T19:44:08.309Z,99598.39
2022-11-21T19:46:39.195Z,99601.20
2022-11-21T19:49:07.801Z,99603.13
2022-11-21T19:51:42.279Z,99602.31
2022-11-21T19:54:10.739Z,99597.09
2022-11-21T19:56:38.590Z,99601.92
2022-11-21T19:59:06.429Z,99596.27
2022-11-21T20:01:35.049Z,99595.91
2022-11-21T20:04:04.196Z,99601.46
2022-11-21T20:06:39.517Z,99608.33
2022-11-21T20:09:09.099Z,99597.45
2022-11-21T20:11:36.968Z,99608.82
2022-11-21T20:14:04.758Z,99612.81
2022-11-21T20:16:37.347Z,99602.18
2022-11-21T20:19:07.738Z,99605.16
2022-11-21T20:21:35.845Z,99604.30
2022-11-21T20:24:04.764Z,99600.19
2022-11-21T20:26:32.630Z,99600.19
2022-11-21T20:29:00.506Z,99601.01
2022-11-21T20:31:35.282Z,99598.88
2022-11-21T20:34:07.560Z,99608.69
2022-11-21T20:36:36.097Z,99604.18
2022-11-21T20:39:06.272Z,99609.05
2022-11-21T20:41:35.578Z,99609.05
2022-11-21T20:46:52.902Z,99632.46
2022-11-21T20:49:20.749Z,99636.97
2022-11-21T20:54:37.357Z,99617.09
2022-11-21T20:57:08.127Z,99626.80
2022-11-21T20:59:38.326Z,99627.62
2022-11-21T21:02:06.238Z,99631.28
2022-11-21T21:04:34.185Z,99641.81
2022-11-21T21:07:02.060Z,99635.80
2022-11-21T21:09:30.098Z,99619.58
2022-11-21T21:11:58.164Z,99609.87
2022-11-21T21:14:25.976Z,99611.53
2022-11-21T21:16:53.890Z,99607.12
2022-11-21T21:19:22.687Z,99609.54
2022-11-21T21:21:50.638Z,99608.69
2022-11-21T21:24:18.427Z,99611.53
2022-11-21T21:26:47.512Z,99611.17
2022-11-21T21:29:20.198Z,99609.15
2022-11-21T21:31:51.666Z,99612.81
2022-11-21T21:34:23.453Z,99601.46
2022-11-21T21:36:51.968Z,99607.61
2022-11-21T21:39:19.881Z,99605.26
2022-11-21T21:41:48.131Z,99608.10
2022-11-21T21:44:16.415Z,99608.10
2022-11-21T21:46:44.336Z,99612.58
2022-11-21T21:49:12.187Z,99607.71
2022-11-21T21:51:40.215Z,99607.71
2022-11-21T21:54:08.270Z,99602.87
2022-11-21T21:56:36.194Z,99603.72
2022-11-21T21:59:04.017Z,99602.41
2022-11-21T22:01:33.149Z,99609.24
2022-11-21T22:04:04.719Z,99608.43
2022-11-21T22:06:34.157Z,99614.61
2022-11-21T22:09:02.160Z,99621.08
2022-11-21T22:11:31.700Z,99614.22
2022-11-21T22:14:07.429Z,99604.44
2022-11-21T22:16:35.292Z,99599.57
2022-11-21T22:19:03.047Z,99608.10
2022-11-21T22:21:35.428Z,99603.59
2022-11-21T22:26:52.674Z,99625.85
2022-11-21T22:29:20.477Z,99643.94
2022-11-21T22:31:48.384Z,99629.38
2022-11-21T22:34:16.142Z,99633.90
2022-11-21T22:36:44.553Z,99633.90
2022-11-21T22:39:12.545Z,99631.41
2022-11-21T22:41:40.415Z,99641.58
2022-11-21T22:44:08.281Z,99635.89
2022-11-21T22:46:36.238Z,99638.25
2022-11-21T22:49:04.793Z,99641.09
2022-11-21T22:51:32.540Z,99649.49
2022-11-21T22:54:00.560Z,99640.41
2022-11-21T22:56:28.893Z,99643.94
2022-11-21T22:58:57.316Z,99643.94
2022-11-21T23:01:26.265Z,99636.25
2022-11-21T23:03:54.230Z,99642.63
2022-11-21T23:06:24.758Z,99634.98
2022-11-21T23:08:53.365Z,99631.64
2022-11-21T23:11:25.650Z,99631.28
2022-11-21T23:13:53.583Z,99615.55
2022-11-21T23:16:21.652Z,99613.43
2022-11-21T23:18:50.065Z,99615.46
2022-11-21T23:21:17.812Z,99611.41
2022-11-21T23:23:45.555Z,99615.10
2022-11-21T23:26:13.345Z,99603.75
2022-11-21T23:28:41.060Z,99603.27
2022-11-21T23:31:08.848Z,99603.63
2022-11-21T23:33:36.674Z,99592.63
2022-11-21T23:36:04.585Z,99591.33
2022-11-21T23:38:32.359Z,99587.57
2022-11-21T23:41:00.265Z,99585.15
2022-11-21T23:43:28.433Z,99584.46
2022-11-21T23:45:56.492Z,99588.16
2022-11-21T23:48:25.361Z,99592.51
2022-11-21T23:50:53.211Z,99588.71
2022-11-21T23:53:21.206Z,99587.99
2022-11-21T23:55:49.559Z,99586.03
2022-11-21T23:58:17.651Z,99589.30
